sensor_id;sensor_type;location;lat;lon;timestamp;pressure;altitude;pressure_sealevel;temperature;humidity
45247;BME280;31529;51.158;7.354;2022-07-03T00:00:05;98107.84;;;20.43;53.96
45247;BME280;31529;51.158;7.354;2022-07-03T00:00:42;98107.06;;;20.42;53.66
45247;BME280;31529;51.158;7.354;2022-07-03T00:01:17;98106.28;;;20.42;53.62
45247;BME280;31529;51.158;7.354;2022-07-03T00:01:53;98115.53;;;20.41;52.88
45247;BME280;31529;51.158;7.354;2022-07-03T00:02:29;98103.47;;;20.38;53.01
45247;BME280;31529;51.158;7.354;2022-07-03T00:02:46;98105.41;;;20.38;53.11
45247;BME280;31529;51.158;7.354;2022-07-03T00:03:22;98106.06;;;20.35;52.78
45247;BME280;31529;51.158;7.354;2022-07-03T00:03:40;98104.16;;;20.35;53.28
45247;BME280;31529;51.158;7.354;2022-07-03T00:04:16;98098.28;;;20.33;53.32
45247;BME280;31529;51.158;7.354;2022-07-03T00:04:53;98101.69;;;20.30;53.18
45247;BME280;31529;51.158;7.354;2022-07-03T00:05:29;98108.56;;;20.27;52.96
45247;BME280;31529;51.158;7.354;2022-07-03T00:06:05;98103.06;;;20.24;52.95
45247;BME280;31529;51.158;7.354;2022-07-03T00:06:41;98100.72;;;20.22;53.69
45247;BME280;31529;51.158;7.354;2022-07-03T00:07:17;98105.22;;;20.18;53.29
45247;BME280;31529;51.158;7.354;2022-07-03T00:07:53;98098.56;;;20.16;53.48
45247;BME280;31529;51.158;7.354;2022-07-03T00:08:29;98103.88;;;20.12;53.71
45247;BME280;31529;51.158;7.354;2022-07-03T00:09:06;98098.78;;;20.11;53.83
45247;BME280;31529;51.158;7.354;2022-07-03T00:09:42;98106.81;;;20.07;54.03
45247;BME280;31529;51.158;7.354;2022-07-03T00:10:18;98109.09;;;20.05;54.21
45247;BME280;31529;51.158;7.354;2022-07-03T00:10:54;98107.06;;;20.02;54.31
45247;BME280;31529;51.158;7.354;2022-07-03T00:11:30;98105.81;;;19.99;54.78
45247;BME280;31529;51.158;7.354;2022-07-03T00:12:06;98096.47;;;19.97;54.19
45247;BME280;31529;51.158;7.354;2022-07-03T00:12:43;98104.16;;;19.95;54.85
45247;BME280;31529;51.158;7.354;2022-07-03T00:13:19;98100.56;;;19.91;54.43
45247;BME280;31529;51.158;7.354;2022-07-03T00:13:55;98103.25;;;19.91;54.04
45247;BME280;31529;51.158;7.354;2022-07-03T00:14:31;98104.38;;;19.89;54.50
45247;BME280;31529;51.158;7.354;2022-07-03T00:15:08;98108.22;;;19.88;53.97
45247;BME280;31529;51.158;7.354;2022-07-03T00:15:44;98107.78;;;19.86;54.25
45247;BME280;31529;51.158;7.354;2022-07-03T00:16:20;98108.56;;;19.87;54.32
45247;BME280;31529;51.158;7.354;2022-07-03T00:16:56;98100.78;;;19.85;54.07
45247;BME280;31529;51.158;7.354;2022-07-03T00:17:32;98106.19;;;19.85;54.04
45247;BME280;31529;51.158;7.354;2022-07-03T00:18:08;98100.00;;;19.85;54.06
45247;BME280;31529;51.158;7.354;2022-07-03T00:18:45;98100.31;;;19.83;54.39
45247;BME280;31529;51.158;7.354;2022-07-03T00:19:21;98101.44;;;19.82;55.09
45247;BME280;31529;51.158;7.354;2022-07-03T00:19:57;98095.59;;;19.80;55.26
45247;BME280;31529;51.158;7.354;2022-07-03T00:20:35;98106.78;;;19.79;55.24
45247;BME280;31529;51.158;7.354;2022-07-03T00:21:20;98097.41;;;19.76;55.31
45247;BME280;31529;51.158;7.354;2022-07-03T00:22:04;98098.41;;;19.72;55.55
45247;BME280;31529;51.158;7.354;2022-07-03T00:22:41;98089.38;;;19.67;55.66
45247;BME280;31529;51.158;7.354;2022-07-03T00:23:19;98026.47;;;19.21;55.77
45247;BME280;31529;51.158;7.354;2022-07-03T00:24:00;98091.09;;;19.60;55.84
45247;BME280;31529;51.158;7.354;2022-07-03T00:24:50;98096.38;;;19.56;56.07
45247;BME280;31529;51.158;7.354;2022-07-03T00:25:27;98085.00;;;19.50;55.99
45247;BME280;31529;51.158;7.354;2022-07-03T00:26:04;98084.56;;;19.48;55.78
45247;BME280;31529;51.158;7.354;2022-07-03T00:26:41;98085.56;;;19.44;56.66
45247;BME280;31529;51.158;7.354;2022-07-03T00:27:20;98068.75;;;19.26;56.79
45247;BME280;31529;51.158;7.354;2022-07-03T00:27:59;98088.38;;;19.35;56.80
45247;BME280;31529;51.158;7.354;2022-07-03T00:28:35;98080.94;;;19.32;56.67
45247;BME280;31529;51.158;7.354;2022-07-03T00:29:11;98085.88;;;19.30;57.18
45247;BME280;31529;51.158;7.354;2022-07-03T00:29:49;98082.75;;;19.28;57.37
45247;BME280;31529;51.158;7.354;2022-07-03T00:30:28;98081.97;;;19.27;57.24
45247;BME280;31529;51.158;7.354;2022-07-03T00:31:04;98090.06;;;19.27;57.63
45247;BME280;31529;51.158;7.354;2022-07-03T00:31:40;98085.00;;;19.26;56.89
45247;BME280;31529;51.158;7.354;2022-07-03T00:32:18;98083.84;;;19.27;57.31
45247;BME280;31529;51.158;7.354;2022-07-03T00:32:59;98088.16;;;19.28;56.74
45247;BME280;31529;51.158;7.354;2022-07-03T00:33:39;98085.78;;;19.26;56.95
45247;BME280;31529;51.158;7.354;2022-07-03T00:34:17;98086.56;;;19.27;56.27
45247;BME280;31529;51.158;7.354;2022-07-03T00:34:54;98089.25;;;19.27;56.10
45247;BME280;31529;51.158;7.354;2022-07-03T00:35:32;98086.56;;;19.27;55.91
45247;BME280;31529;51.158;7.354;2022-07-03T00:36:09;98085.00;;;19.26;55.79
45247;BME280;31529;51.158;7.354;2022-07-03T00:36:47;98088.16;;;19.28;55.77
45247;BME280;31529;51.158;7.354;2022-07-03T00:37:23;98089.72;;;19.29;55.84
45247;BME280;31529;51.158;7.354;2022-07-03T00:38:00;98094.00;;;19.30;55.33
45247;BME280;31529;51.158;7.354;2022-07-03T00:38:37;98088.25;;;19.31;55.24
45247;BME280;31529;51.158;7.354;2022-07-03T00:39:13;98089.81;;;19.33;54.89
45247;BME280;31529;51.158;7.354;2022-07-03T00:39:49;98092.19;;;19.34;55.94
45247;BME280;31529;51.158;7.354;2022-07-03T00:40:26;98091.88;;;19.36;55.70
45247;BME280;31529;51.158;7.354;2022-07-03T00:41:02;98096.13;;;19.37;55.62
45247;BME280;31529;51.158;7.354;2022-07-03T00:41:39;98095.03;;;19.38;55.67
45247;BME280;31529;51.158;7.354;2022-07-03T00:42:16;98093.09;;;19.38;55.15
45247;BME280;31529;51.158;7.354;2022-07-03T00:42:53;98093.88;;;19.39;54.61
45247;BME280;31529;51.158;7.354;2022-07-03T00:43:29;98097.06;;;19.41;55.04
45247;BME280;31529;51.158;7.354;2022-07-03T00:44:05;98087.03;;;19.41;54.64
45247;BME280;31529;51.158;7.354;2022-07-03T00:44:43;98093.22;;;19.42;54.48
45247;BME280;31529;51.158;7.354;2022-07-03T00:45:21;98090.19;;;19.43;54.22
45247;BME280;31529;51.158;7.354;2022-07-03T00:46:03;98087.91;;;19.45;54.95
45247;BME280;31529;51.158;7.354;2022-07-03T00:46:43;98089.50;;;19.46;54.72
45247;BME280;31529;51.158;7.354;2022-07-03T00:47:27;98093.13;;;19.50;55.10
45247;BME280;31529;51.158;7.354;2022-07-03T00:48:03;98081.16;;;19.51;55.01
45247;BME280;31529;51.158;7.354;2022-07-03T00:48:44;98084.66;;;19.52;55.34
45247;BME280;31529;51.158;7.354;2022-07-03T00:49:24;98089.72;;;19.54;55.32
45247;BME280;31529;51.158;7.354;2022-07-03T00:50:00;98091.31;;;19.55;55.44
45247;BME280;31529;51.158;7.354;2022-07-03T00:50:50;98094.47;;;19.57;55.99
45247;BME280;31529;51.158;7.354;2022-07-03T00:51:28;98088.72;;;19.58;56.07
45247;BME280;31529;51.158;7.354;2022-07-03T00:52:04;98097.63;;;19.59;55.62
45247;BME280;31529;51.158;7.354;2022-07-03T00:52:45;98096.50;;;19.60;55.66
45247;BME280;31529;51.158;7.354;2022-07-03T00:53:32;98094.56;;;19.60;55.81
45247;BME280;31529;51.158;7.354;2022-07-03T00:54:08;98099.22;;;19.60;55.71
45247;BME280;31529;51.158;7.354;2022-07-03T00:54:55;98100.78;;;19.61;55.27
45247;BME280;31529;51.158;7.354;2022-07-03T00:55:33;98097.28;;;19.60;55.45
45247;BME280;31529;51.158;7.354;2022-07-03T00:56:13;98104.63;;;19.60;55.61
45247;BME280;31529;51.158;7.354;2022-07-03T00:56:50;98100.00;;;19.60;55.19
45247;BME280;31529;51.158;7.354;2022-07-03T00:57:28;98105.41;;;19.60;55.65
45247;BME280;31529;51.158;7.354;2022-07-03T00:58:05;98100.78;;;19.61;56.13
45247;BME280;31529;51.158;7.354;2022-07-03T00:58:41;98099.22;;;19.60;55.90
45247;BME280;31529;51.158;7.354;2022-07-03T00:59:18;98097.28;;;19.60;55.99
45247;BME280;31529;51.158;7.354;2022-07-03T00:59:54;98092.66;;;19.61;55.76
45247;BME280;31529;51.158;7.354;2022-07-03T01:00:30;98095.34;;;19.61;55.84
45247;BME280;31529;51.158;7.354;2022-07-03T01:01:10;98091.88;;;19.60;56.30
45247;BME280;31529;51.158;7.354;2022-07-03T01:01:52;98092.97;;;19.59;56.63
45247;BME280;31529;51.158;7.354;2022-07-03T01:02:49;98094.47;;;19.57;56.60
45247;BME280;31529;51.158;7.354;2022-07-03T01:03:29;98086.69;;;19.55;56.85
45247;BME280;31529;51.158;7.354;2022-07-03T01:04:17;98085.78;;;19.51;56.44
45247;BME280;31529;51.158;7.354;2022-07-03T01:05:55;98088.38;;;19.35;56.51
45247;BME280;31529;51.158;7.354;2022-07-03T01:06:40;98087.00;;;19.29;56.97
45247;BME280;31529;51.158;7.354;2022-07-03T01:08:21;98088.25;;;19.19;57.71
45247;BME280;31529;51.158;7.354;2022-07-03T01:09:00;98097.03;;;19.16;57.76
45247;BME280;31529;51.158;7.354;2022-07-03T01:11:25;97959.88;;;18.22;57.50
45247;BME280;31529;51.158;7.354;2022-07-03T01:12:07;98092.38;;;19.04;56.97
45247;BME280;31529;51.158;7.354;2022-07-03T01:13:46;98098.25;;;19.06;57.72
45247;BME280;31529;51.158;7.354;2022-07-03T01:14:32;98093.66;;;19.07;57.09
45247;BME280;31529;51.158;7.354;2022-07-03T01:15:39;98091.72;;;19.07;57.55
45247;BME280;31529;51.158;7.354;2022-07-03T01:17:35;98093.88;;;19.14;57.54
45247;BME280;31529;51.158;7.354;2022-07-03T01:20:20;98094.56;;;19.23;57.29
45247;BME280;31529;51.158;7.354;2022-07-03T01:21:07;98096.59;;;19.26;57.36
45247;BME280;31529;51.158;7.354;2022-07-03T01:21:55;98097.50;;;19.30;57.57
45247;BME280;31529;51.158;7.354;2022-07-03T01:22:52;98092.19;;;19.34;57.52
45247;BME280;31529;51.158;7.354;2022-07-03T01:25:42;98088.59;;;19.42;56.57
45247;BME280;31529;51.158;7.354;2022-07-03T01:26:25;98088.25;;;19.44;57.30
45247;BME280;31529;51.158;7.354;2022-07-03T01:27:08;98085.56;;;19.44;56.35
45247;BME280;31529;51.158;7.354;2022-07-03T01:28:38;98084.66;;;19.40;56.01
45247;BME280;31529;51.158;7.354;2022-07-03T01:29:21;98084.53;;;19.36;56.50
45247;BME280;31529;51.158;7.354;2022-07-03T01:30:06;98084.75;;;19.31;56.62
45247;BME280;31529;51.158;7.354;2022-07-03T01:30:50;98080.81;;;19.28;56.80
45247;BME280;31529;51.158;7.354;2022-07-03T01:31:28;98081.84;;;19.24;56.34
45247;BME280;31529;51.158;7.354;2022-07-03T01:32:06;98083.63;;;19.20;56.46
45247;BME280;31529;51.158;7.354;2022-07-03T01:32:44;98080.81;;;19.16;56.77
45247;BME280;31529;51.158;7.354;2022-07-03T01:33:22;98079.09;;;19.11;56.68
45247;BME280;31529;51.158;7.354;2022-07-03T01:33:59;98077.41;;;19.07;57.43
45247;BME280;31529;51.158;7.354;2022-07-03T01:34:37;98074.94;;;19.02;57.43
45247;BME280;31529;51.158;7.354;2022-07-03T01:35:22;97979.81;;;18.29;57.73
45247;BME280;31529;51.158;7.354;2022-07-03T01:36:04;98078.53;;;18.94;58.22
45247;BME280;31529;51.158;7.354;2022-07-03T01:36:42;98081.09;;;18.90;58.69
45247;BME280;31529;51.158;7.354;2022-07-03T01:37:19;98077.50;;;18.86;58.38
45247;BME280;31529;51.158;7.354;2022-07-03T01:38:07;98081.97;;;18.82;58.33
45247;BME280;31529;51.158;7.354;2022-07-03T01:38:45;98074.53;;;18.79;58.67
45247;BME280;31529;51.158;7.354;2022-07-03T01:39:24;98077.09;;;18.75;58.47
45247;BME280;31529;51.158;7.354;2022-07-03T01:40:03;98076.19;;;18.71;59.35
45247;BME280;31529;51.158;7.354;2022-07-03T01:40:41;98075.28;;;18.67;58.95
45247;BME280;31529;51.158;7.354;2022-07-03T01:41:17;98068.63;;;18.64;59.60
45247;BME280;31529;51.158;7.354;2022-07-03T01:41:54;98072.00;;;18.61;59.03
45247;BME280;31529;51.158;7.354;2022-07-03T01:42:35;98071.88;;;18.58;59.21
45247;BME280;31529;51.158;7.354;2022-07-03T01:43:15;98071.75;;;18.54;59.37
45247;BME280;31529;51.158;7.354;2022-07-03T01:43:57;98074.00;;;18.52;59.63
45247;BME280;31529;51.158;7.354;2022-07-03T01:44:38;98077.03;;;18.50;59.65
45247;BME280;31529;51.158;7.354;2022-07-03T01:45:16;98007.19;;;18.07;60.46
45247;BME280;31529;51.158;7.354;2022-07-03T01:45:56;98072.28;;;18.47;60.77
45247;BME280;31529;51.158;7.354;2022-07-03T01:46:36;98068.34;;;18.45;61.23
45247;BME280;31529;51.158;7.354;2022-07-03T01:47:13;98072.94;;;18.44;61.39
45247;BME280;31529;51.158;7.354;2022-07-03T01:47:51;98070.59;;;18.43;61.50
45247;BME280;31529;51.158;7.354;2022-07-03T01:48:28;98074.38;;;18.42;61.71
45247;BME280;31529;51.158;7.354;2022-07-03T01:49:06;98066.63;;;18.40;61.25
45247;BME280;31529;51.158;7.354;2022-07-03T01:49:46;98066.97;;;18.39;61.62
45247;BME280;31529;51.158;7.354;2022-07-03T01:50:25;97941.69;;;17.55;61.57
45247;BME280;31529;51.158;7.354;2022-07-03T01:51:03;98066.50;;;18.37;61.33
45247;BME280;31529;51.158;7.354;2022-07-03T01:51:41;98066.50;;;18.37;61.41
45247;BME280;31529;51.158;7.354;2022-07-03T01:52:18;98069.22;;;18.37;61.67
45247;BME280;31529;51.158;7.354;2022-07-03T01:52:56;98069.22;;;18.37;61.36
45247;BME280;31529;51.158;7.354;2022-07-03T01:53:35;98069.53;;;18.35;61.40
45247;BME280;31529;51.158;7.354;2022-07-03T01:54:12;98073.81;;;18.36;61.28
45247;BME280;31529;51.158;7.354;2022-07-03T01:54:48;98075.72;;;18.36;61.34
45247;BME280;31529;51.158;7.354;2022-07-03T01:55:25;97928.13;;;17.43;61.47
45247;BME280;31529;51.158;7.354;2022-07-03T01:56:07;98071.91;;;18.37;61.36
45247;BME280;31529;51.158;7.354;2022-07-03T01:56:44;98068.06;;;18.38;60.79
45247;BME280;31529;51.158;7.354;2022-07-03T01:57:22;98069.66;;;18.39;60.89
45247;BME280;31529;51.158;7.354;2022-07-03T01:58:03;98071.22;;;18.40;60.98
45247;BME280;31529;51.158;7.354;2022-07-03T01:58:39;98069.34;;;18.40;61.13
45247;BME280;31529;51.158;7.354;2022-07-03T01:59:15;98073.59;;;18.41;61.25
45247;BME280;31529;51.158;7.354;2022-07-03T01:59:51;98070.91;;;18.41;61.28
45247;BME280;31529;51.158;7.354;2022-07-03T02:00:28;98077.91;;;18.42;61.08
45247;BME280;31529;51.158;7.354;2022-07-03T02:01:09;98073.59;;;18.41;60.76
45247;BME280;31529;51.158;7.354;2022-07-03T02:02:00;98074.38;;;18.42;60.39
45247;BME280;31529;51.158;7.354;2022-07-03T02:02:48;98071.69;;;18.42;60.13
45247;BME280;31529;51.158;7.354;2022-07-03T02:03:39;98073.28;;;18.43;60.17
45247;BME280;31529;51.158;7.354;2022-07-03T02:04:40;98072.16;;;18.44;60.84
45247;BME280;31529;51.158;7.354;2022-07-03T02:06:06;98073.75;;;18.45;60.56
45247;BME280;31529;51.158;7.354;2022-07-03T02:07:02;98068.34;;;18.45;60.64
45247;BME280;31529;51.158;7.354;2022-07-03T02:07:47;98079.16;;;18.45;60.34
45247;BME280;31529;51.158;7.354;2022-07-03T02:08:48;98076.13;;;18.46;60.45
45247;BME280;31529;51.158;7.354;2022-07-03T02:10:07;98072.28;;;18.47;60.72
45247;BME280;31529;51.158;7.354;2022-07-03T02:10:41;98070.38;;;18.48;60.41
45247;BME280;31529;51.158;7.354;2022-07-03T02:11:22;98071.50;;;18.47;60.14
45247;BME280;31529;51.158;7.354;2022-07-03T02:12:03;98072.63;;;18.46;60.49
45247;BME280;31529;51.158;7.354;2022-07-03T02:12:51;98071.03;;;18.45;60.41
45247;BME280;31529;51.158;7.354;2022-07-03T02:13:30;98065.97;;;18.43;61.37
45247;BME280;31529;51.158;7.354;2022-07-03T02:14:17;98075.19;;;18.42;60.72
45247;BME280;31529;51.158;7.354;2022-07-03T02:14:58;98062.69;;;18.38;60.67
45247;BME280;31529;51.158;7.354;2022-07-03T02:15:41;98066.06;;;18.34;61.41
45247;BME280;31529;51.158;7.354;2022-07-03T02:16:20;98064.78;;;18.32;61.58
45247;BME280;31529;51.158;7.354;2022-07-03T02:17:09;98058.47;;;18.28;62.44
45247;BME280;31529;51.158;7.354;2022-07-03T02:17:54;98059.13;;;18.25;61.50
45247;BME280;31529;51.158;7.354;2022-07-03T02:18:33;98059.81;;;18.22;61.69
45247;BME280;31529;51.158;7.354;2022-07-03T02:19:11;98058.06;;;18.17;61.98
45247;BME280;31529;51.158;7.354;2022-07-03T02:20:00;98057.16;;;18.13;62.67
45247;BME280;31529;51.158;7.354;2022-07-03T02:20:39;98060.06;;;18.08;62.61
45247;BME280;31529;51.158;7.354;2022-07-03T02:21:25;98060.28;;;18.03;64.02
45247;BME280;31529;51.158;7.354;2022-07-03T02:22:04;98060.94;;;18.00;64.06
45247;BME280;31529;51.158;7.354;2022-07-03T02:22:47;98060.00;;;17.95;63.97
45247;BME280;31529;51.158;7.354;2022-07-03T02:23:32;98061.00;;;17.91;63.91
45247;BME280;31529;51.158;7.354;2022-07-03T02:24:19;98060.06;;;17.87;64.77
45247;BME280;31529;51.158;7.354;2022-07-03T02:25:02;98065.31;;;17.83;64.07
45247;BME280;31529;51.158;7.354;2022-07-03T02:25:41;98060.88;;;17.79;64.19
45247;BME280;31529;51.158;7.354;2022-07-03T02:26:19;98054.56;;;17.74;64.45
45247;BME280;31529;51.158;7.354;2022-07-03T02:27:05;98062.53;;;17.71;64.30
45247;BME280;31529;51.158;7.354;2022-07-03T02:28:21;98051.59;;;17.67;64.51
45247;BME280;31529;51.158;7.354;2022-07-03T02:29:09;97989.22;;;17.18;64.88
45247;BME280;31529;51.158;7.354;2022-07-03T02:29:50;98055.16;;;17.59;64.85
45247;BME280;31529;51.158;7.354;2022-07-03T02:30:34;98051.19;;;17.56;64.49
45247;BME280;31529;51.158;7.354;2022-07-03T02:31:11;98051.53;;;17.55;65.13
45247;BME280;31529;51.158;7.354;2022-07-03T02:31:54;98049.47;;;17.52;65.04
45247;BME280;31529;51.158;7.354;2022-07-03T02:32:36;98043.94;;;17.48;64.97
45247;BME280;31529;51.158;7.354;2022-07-03T02:33:19;97984.38;;;17.03;64.99
45247;BME280;31529;51.158;7.354;2022-07-03T02:34:00;98055.72;;;17.44;65.05
45247;BME280;31529;51.158;7.354;2022-07-03T02:34:38;98050.63;;;17.42;65.62
45247;BME280;31529;51.158;7.354;2022-07-03T02:35:28;98055.25;;;17.42;65.03
45247;BME280;31529;51.158;7.354;2022-07-03T02:36:05;98054.44;;;17.41;65.47
45247;BME280;31529;51.158;7.354;2022-07-03T02:36:47;98051.75;;;17.41;65.24
45247;BME280;31529;51.158;7.354;2022-07-03T02:37:24;98063.00;;;17.43;65.24
45247;BME280;31529;51.158;7.354;2022-07-03T02:38:15;98058.41;;;17.44;64.69
45247;BME280;31529;51.158;7.354;2022-07-03T02:38:54;98062.34;;;17.46;65.12
45247;BME280;31529;51.158;7.354;2022-07-03T02:39:35;98058.56;;;17.47;64.71
45247;BME280;31529;51.158;7.354;2022-07-03T02:40:23;98058.66;;;17.51;64.49
45247;BME280;31529;51.158;7.354;2022-07-03T02:41:17;98061.19;;;17.56;64.89
45247;BME280;31529;51.158;7.354;2022-07-03T02:41:59;98058.63;;;17.60;64.91
45247;BME280;31529;51.158;7.354;2022-07-03T02:43:02;98052.59;;;17.63;64.79
45247;BME280;31529;51.158;7.354;2022-07-03T02:44:27;98065.53;;;17.69;64.96
45247;BME280;31529;51.158;7.354;2022-07-03T02:45:25;98057.91;;;17.71;64.88
45247;BME280;31529;51.158;7.354;2022-07-03T02:48:19;98055.94;;;17.81;63.61
45247;BME280;31529;51.158;7.354;2022-07-03T02:50:33;98053.44;;;17.75;63.51
45247;BME280;31529;51.158;7.354;2022-07-03T02:51:13;98051.09;;;17.74;63.73
45247;BME280;31529;51.158;7.354;2022-07-03T02:52:02;98052.19;;;17.73;63.43
45247;BME280;31529;51.158;7.354;2022-07-03T02:53:22;98056.34;;;17.70;63.55
45247;BME280;31529;51.158;7.354;2022-07-03T02:53:59;98058.59;;;17.68;63.19
45247;BME280;31529;51.158;7.354;2022-07-03T02:54:45;98048.13;;;17.67;63.47
45247;BME280;31529;51.158;7.354;2022-07-03T02:56:19;98060.81;;;17.66;63.33
45247;BME280;31529;51.158;7.354;2022-07-03T02:57:06;98057.31;;;17.66;63.56
45247;BME280;31529;51.158;7.354;2022-07-03T02:57:43;98053.06;;;17.65;63.90
45247;BME280;31529;51.158;7.354;2022-07-03T03:00:15;98071.16;;;17.64;64.42
45247;BME280;31529;51.158;7.354;2022-07-03T03:01:46;98057.19;;;17.62;64.56
45247;BME280;31529;51.158;7.354;2022-07-03T03:03:29;98057.53;;;17.61;65.23
45247;BME280;31529;51.158;7.354;2022-07-03T03:04:21;98066.72;;;17.60;64.65
45247;BME280;31529;51.158;7.354;2022-07-03T03:05:08;98054.69;;;17.57;64.59
45247;BME280;31529;51.158;7.354;2022-07-03T03:05:50;98065.00;;;17.55;65.29
45247;BME280;31529;51.158;7.354;2022-07-03T03:06:30;98058.34;;;17.52;65.25
45247;BME280;31529;51.158;7.354;2022-07-03T03:07:10;98059.00;;;17.49;64.64
45247;BME280;31529;51.158;7.354;2022-07-03T03:09:02;98064.13;;;17.42;65.24
45247;BME280;31529;51.158;7.354;2022-07-03T03:09:43;98060.19;;;17.40;65.30
45247;BME280;31529;51.158;7.354;2022-07-03T03:10:20;98055.09;;;17.38;64.96
45247;BME280;31529;51.158;7.354;2022-07-03T03:10:58;98061.28;;;17.39;64.76
45247;BME280;31529;51.158;7.354;2022-07-03T03:11:41;98061.59;;;17.37;65.54
45247;BME280;31529;51.158;7.354;2022-07-03T03:12:22;98060.50;;;17.38;65.69
45247;BME280;31529;51.158;7.354;2022-07-03T03:13:09;98061.28;;;17.39;65.31
45247;BME280;31529;51.158;7.354;2022-07-03T03:13:49;98062.06;;;17.39;65.90
45247;BME280;31529;51.158;7.354;2022-07-03T03:14:40;98062.06;;;17.39;65.90
45247;BME280;31529;51.158;7.354;2022-07-03T03:15:17;98060.97;;;17.40;65.45
45247;BME280;31529;51.158;7.354;2022-07-03T03:16:51;98057.13;;;17.41;65.47
45247;BME280;31529;51.158;7.354;2022-07-03T03:17:29;98069.06;;;17.40;65.79
45247;BME280;31529;51.158;7.354;2022-07-03T03:18:27;98054.78;;;17.40;65.17
45247;BME280;31529;51.158;7.354;2022-07-03T03:19:04;98065.59;;;17.40;64.88
45247;BME280;31529;51.158;7.354;2022-07-03T03:19:40;98062.88;;;17.40;64.75
45247;BME280;31529;51.158;7.354;2022-07-03T03:20:17;98068.28;;;17.40;65.12
45247;BME280;31529;51.158;7.354;2022-07-03T03:21:03;98059.38;;;17.39;64.56
45247;BME280;31529;51.158;7.354;2022-07-03T03:21:45;98062.06;;;17.39;64.61
45247;BME280;31529;51.158;7.354;2022-07-03T03:22:51;98059.38;;;17.39;64.38
45247;BME280;31529;51.158;7.354;2022-07-03T03:24:24;98061.09;;;17.44;65.09
45247;BME280;31529;51.158;7.354;2022-07-03T03:25:01;98068.06;;;17.45;64.67
45247;BME280;31529;51.158;7.354;2022-07-03T03:25:38;98063.13;;;17.47;64.90
45247;BME280;31529;51.158;7.354;2022-07-03T03:26:14;98063.94;;;17.47;65.32
45247;BME280;31529;51.158;7.354;2022-07-03T03:26:52;98062.81;;;17.48;64.71
45247;BME280;31529;51.158;7.354;2022-07-03T03:27:29;98067.09;;;17.49;64.95
45247;BME280;31529;51.158;7.354;2022-07-03T03:28:05;98059.47;;;17.51;65.03
45247;BME280;31529;51.158;7.354;2022-07-03T03:28:41;98059.94;;;17.53;65.35
45247;BME280;31529;51.158;7.354;2022-07-03T03:29:17;98069.28;;;17.56;64.92
45247;BME280;31529;51.158;7.354;2022-07-03T03:29:54;98061.66;;;17.58;64.75
45247;BME280;31529;51.158;7.354;2022-07-03T03:30:30;98070.19;;;17.60;64.98
45247;BME280;31529;51.158;7.354;2022-07-03T03:31:06;98068.31;;;17.61;64.89
45247;BME280;31529;51.158;7.354;2022-07-03T03:31:44;98064.47;;;17.62;65.13
45247;BME280;31529;51.158;7.354;2022-07-03T03:32:20;98066.09;;;17.63;65.08
45247;BME280;31529;51.158;7.354;2022-07-03T03:32:57;98058.44;;;17.65;64.61
45247;BME280;31529;51.158;7.354;2022-07-03T03:33:36;98070.03;;;17.65;64.61
45247;BME280;31529;51.158;7.354;2022-07-03T03:34:15;98059.56;;;17.64;64.15
45247;BME280;31529;51.158;7.354;2022-07-03T03:34:52;98062.25;;;17.64;64.99
45247;BME280;31529;51.158;7.354;2022-07-03T03:35:28;98062.56;;;17.62;64.56
45247;BME280;31529;51.158;7.354;2022-07-03T03:36:05;98071.00;;;17.61;64.54
45247;BME280;31529;51.158;7.354;2022-07-03T03:36:42;98060.09;;;17.57;64.78
45247;BME280;31529;51.158;7.354;2022-07-03T03:37:18;98062.31;;;17.55;64.84
45247;BME280;31529;51.158;7.354;2022-07-03T03:37:54;98065.34;;;17.53;64.36
45247;BME280;31529;51.158;7.354;2022-07-03T03:38:30;98070.28;;;17.51;64.96
45247;BME280;31529;51.158;7.354;2022-07-03T03:39:06;98060.91;;;17.49;64.68
45247;BME280;31529;51.158;7.354;2022-07-03T03:39:43;98063.94;;;17.47;65.36
45247;BME280;31529;51.158;7.354;2022-07-03T03:40:19;98060.31;;;17.43;64.86
45247;BME280;31529;51.158;7.354;2022-07-03T03:40:55;98059.84;;;17.41;65.29
45247;BME280;31529;51.158;7.354;2022-07-03T03:41:31;98057.81;;;17.38;64.87
45247;BME280;31529;51.158;7.354;2022-07-03T03:42:09;98065.44;;;17.36;65.15
45247;BME280;31529;51.158;7.354;2022-07-03T03:42:45;98057.97;;;17.33;65.57
45247;BME280;31529;51.158;7.354;2022-07-03T03:43:21;98060.22;;;17.31;65.27
45247;BME280;31529;51.158;7.354;2022-07-03T03:43:56;98057.84;;;17.29;65.15
45247;BME280;31529;51.158;7.354;2022-07-03T03:44:32;98059.28;;;17.27;65.00
45247;BME280;31529;51.158;7.354;2022-07-03T03:45:09;98061.53;;;17.25;65.18
45247;BME280;31529;51.158;7.354;2022-07-03T03:45:45;98062.94;;;17.22;65.55
45247;BME280;31529;51.158;7.354;2022-07-03T03:46:21;98066.00;;;17.21;65.84
45247;BME280;31529;51.158;7.354;2022-07-03T03:46:57;98067.09;;;17.20;65.49
45247;BME280;31529;51.158;7.354;2022-07-03T03:47:33;98063.59;;;17.19;65.35
45247;BME280;31529;51.158;7.354;2022-07-03T03:48:09;98063.13;;;17.17;65.59
45247;BME280;31529;51.158;7.354;2022-07-03T03:48:45;98065.38;;;17.15;65.54
45247;BME280;31529;51.158;7.354;2022-07-03T03:49:23;98061.09;;;17.14;65.75
45247;BME280;31529;51.158;7.354;2022-07-03T03:49:59;98064.88;;;17.13;66.17
45247;BME280;31529;51.158;7.354;2022-07-03T03:50:36;98069.16;;;17.14;66.06
45247;BME280;31529;51.158;7.354;2022-07-03T03:51:12;98064.56;;;17.14;66.09
45247;BME280;31529;51.158;7.354;2022-07-03T03:51:48;98060.31;;;17.13;66.00
45247;BME280;31529;51.158;7.354;2022-07-03T03:52:24;98067.25;;;17.14;65.88
45247;BME280;31529;51.158;7.354;2022-07-03T03:53:00;98065.38;;;17.15;65.94
45247;BME280;31529;51.158;7.354;2022-07-03T03:53:36;98064.25;;;17.16;66.04
45247;BME280;31529;51.158;7.354;2022-07-03T03:54:12;98072.00;;;17.17;65.92
45247;BME280;31529;51.158;7.354;2022-07-03T03:54:48;98070.09;;;17.18;66.13
45247;BME280;31529;51.158;7.354;2022-07-03T03:55:24;98069.00;;;17.19;66.35
45247;BME280;31529;51.158;7.354;2022-07-03T03:56:02;98064.38;;;17.20;65.87
45247;BME280;31529;51.158;7.354;2022-07-03T03:56:40;98065.19;;;17.20;66.23